Time;durP1;ratioP1;P1;durP2;ratioP2;P2;SDS_P1;SDS_P2;PMS_P1;PMS_P2;Temp;Humidity;BMP_temperature;BMP_pressure;BME280_temperature;BME280_humidity;BME280_pressure;Samples;Min_cycle;Max_cycle;Signal;HPM_P1;HPM_P2
2022/03/29 00:00:51;;;;;;;27.45;13.07;;;;;;;9.19;75.84;101582.75;5038653;28;20040;-59
2022/03/29 00:03:17;;;;;;;28.23;13.52;;;;;;;9.15;75.50;101578.41;5038588;28;20029;-59
2022/03/29 00:05:42;;;;;;;25.92;13.85;;;;;;;9.20;76.36;101574.91;5038388;28;20025;-59
2022/03/29 00:08:08;;;;;;;30.65;13.55;;;;;;;9.18;76.00;101578.41;5038348;28;20490;-59
2022/03/29 00:10:33;;;;;;;29.80;14.18;;;;;;;9.05;76.04;101562.69;5038322;28;20148;-59
2022/03/29 00:12:58;;;;;;;29.25;14.15;;;;;;;9.02;76.35;101569.63;5038223;28;20061;-58
2022/03/29 00:15:24;;;;;;;30.85;14.07;;;;;;;9.09;76.67;101568.78;5038247;28;20032;-59
2022/03/29 00:17:50;;;;;;;26.40;13.82;;;;;;;9.06;77.42;101564.41;5038142;28;20034;-58
2022/03/29 00:20:19;;;;;;;33.75;14.40;;;;;;;9.15;76.33;101565.34;5038092;28;20140;-58
2022/03/29 00:22:46;;;;;;;23.55;13.90;;;;;;;9.10;76.26;101567.06;5037958;28;20033;-58
2022/03/29 00:25:12;;;;;;;32.72;15.00;;;;;;;9.11;76.56;101563.56;5037859;28;20399;-59
2022/03/29 00:27:37;;;;;;;26.63;14.23;;;;;;;9.16;76.38;101560.13;5037633;28;20102;-59
2022/03/29 00:30:04;;;;;;;26.13;13.98;;;;;;;9.14;76.75;101554.03;5038075;28;20033;-59
2022/03/29 00:32:30;;;;;;;27.98;14.50;;;;;;;9.04;76.38;101534.81;5037827;28;20041;-59
2022/03/29 00:34:55;;;;;;;31.25;15.57;;;;;;;9.10;76.86;101560.09;5037883;28;20033;-59
2022/03/29 00:37:21;;;;;;;28.90;14.93;;;;;;;9.06;76.90;101553.09;5037683;28;20034;-58
2022/03/29 00:39:46;;;;;;;32.08;15.13;;;;;;;8.97;77.34;101546.13;5037705;28;20025;-58
2022/03/29 00:42:11;;;;;;;32.13;15.68;;;;;;;9.02;77.16;101541.78;5037688;28;20332;-59
2022/03/29 00:44:38;;;;;;;26.17;15.63;;;;;;;8.96;77.55;101538.28;5036676;28;20095;-59
2022/03/29 00:47:04;;;;;;;28.73;15.98;;;;;;;8.88;77.62;101530.41;5037725;28;20029;-59
2022/03/29 00:49:29;;;;;;;34.13;16.42;;;;;;;8.84;78.11;101539.06;5036889;28;20033;-60
2022/03/29 00:51:58;;;;;;;26.70;15.50;;;;;;;8.89;78.00;101531.28;5037295;28;20128;-58
2022/03/29 00:54:33;;;;;;;32.50;16.42;;;;;;;8.85;77.89;101521.69;5037317;28;20030;-59
2022/03/29 00:57:03;;;;;;;33.38;16.33;;;;;;;8.70;78.39;101512.03;5037634;28;20071;-58
2022/03/29 00:59:29;;;;;;;28.90;16.48;;;;;;;8.66;78.35;101508.53;5037135;28;20045;-59
2022/03/29 01:01:57;;;;;;;28.35;16.10;;;;;;;8.71;78.44;101516.41;5036866;28;20045;-59
2022/03/29 01:04:23;;;;;;;33.67;16.90;;;;;;;8.70;78.31;101507.69;5037081;28;20040;-59
2022/03/29 01:06:49;;;;;;;30.88;16.95;;;;;;;8.70;78.53;101505.09;5037221;28;20033;-59
2022/03/29 01:09:15;;;;;;;27.75;16.20;;;;;;;8.70;78.39;101515.53;5037384;28;20056;-59
2022/03/29 01:11:40;;;;;;;28.45;16.75;;;;;;;8.72;78.81;101507.72;5037100;28;20440;-58
2022/03/29 01:14:06;;;;;;;29.58;16.48;;;;;;;8.62;79.04;101506.81;5037113;28;20030;-59
2022/03/29 01:19:16;;;;;;;31.92;17.60;;;;;;;8.50;79.39;101495.41;5037279;28;20036;-58
2022/03/29 01:21:57;;;;;;;35.75;18.20;;;;;;;8.48;79.52;101503.25;5037009;28;20463;-59
2022/03/29 01:24:24;;;;;;;32.25;18.05;;;;;;;8.52;79.78;101494.56;5036837;28;20167;-59
2022/03/29 01:26:51;;;;;;;26.42;17.70;;;;;;;8.45;79.88;101492.81;5037053;28;20034;-58
2022/03/29 01:29:17;;;;;;;30.70;17.65;;;;;;;8.46;79.61;101493.69;5036543;28;20037;-60
2022/03/29 01:31:43;;;;;;;28.67;17.13;;;;;;;8.44;79.77;101493.66;5036392;28;20404;-58
2022/03/29 01:34:08;;;;;;;31.38;17.25;;;;;;;8.44;79.95;101491.06;5036924;28;20030;-58
2022/03/29 01:36:34;;;;;;;32.70;18.52;;;;;;;8.38;79.82;101491.88;5036469;28;20052;-59
2022/03/29 01:38:59;;;;;;;27.70;17.02;;;;;;;8.38;80.14;101491.88;5036501;28;20068;-58
2022/03/29 01:41:27;;;;;;;34.20;17.90;;;;;;;8.37;80.18;101491.88;5036565;28;20068;-58
2022/03/29 01:43:52;;;;;;;31.83;18.08;;;;;;;8.32;80.40;101490.97;5036389;28;20061;-59
2022/03/29 01:46:18;;;;;;;35.22;18.52;;;;;;;8.33;80.12;101487.50;5036332;28;20075;-59
2022/03/29 01:48:43;;;;;;;29.15;18.08;;;;;;;8.32;80.83;101485.75;5036251;28;20025;-59
2022/03/29 01:51:10;;;;;;;34.88;19.17;;;;;;;8.26;81.02;101488.31;5036536;28;20026;-59
2022/03/29 01:53:36;;;;;;;37.83;20.15;;;;;;;8.27;81.19;101480.50;5036356;28;20036;-59
2022/03/29 01:56:01;;;;;;;37.42;19.33;;;;;;;8.24;81.34;101479.59;5035345;28;20072;-59
2022/03/29 01:58:29;;;;;;;32.92;19.77;;;;;;;8.19;81.66;101463.91;5036004;28;20033;-59
2022/03/29 02:00:55;;;;;;;32.75;19.35;;;;;;;8.22;81.80;101474.38;5036059;28;20053;-58
2022/03/29 02:03:20;;;;;;;36.55;19.67;;;;;;;8.14;82.73;101460.41;5035878;28;20119;-58
2022/03/29 02:05:46;;;;;;;37.20;20.15;;;;;;;8.16;82.01;101465.63;5035970;28;20092;-62
2022/03/29 02:08:11;;;;;;;33.58;20.25;;;;;;;8.10;81.98;101460.41;5035675;28;20037;-59
2022/03/29 02:10:37;;;;;;;35.97;19.88;;;;;;;8.15;82.08;101461.28;5036014;28;20115;-58
2022/03/29 02:13:03;;;;;;;36.42;21.63;;;;;;;8.10;82.60;101456.06;5036045;28;20063;-60
2022/03/29 02:15:29;;;;;;;33.70;20.83;;;;;;;8.06;82.94;101441.25;5036085;28;20342;-58
2022/03/29 02:17:54;;;;;;;36.28;21.25;;;;;;;8.18;82.73;101445.66;5035723;28;20033;-59
2022/03/29 02:20:21;;;;;;;38.95;22.42;;;;;;;8.09;82.99;101448.22;5035528;28;20050;-58
2022/03/29 02:22:47;;;;;;;38.10;21.73;;;;;;;8.07;83.69;101445.59;5035686;28;20041;-59
2022/03/29 02:25:12;;;;;;;38.88;22.42;;;;;;;8.06;83.85;101443.84;5035832;28;20417;-59
2022/03/29 02:27:43;;;;;;;37.22;21.33;;;;;;;8.00;83.89;101447.28;5035512;28;20508;-58
2022/03/29 02:30:11;;;;;;;37.63;23.55;;;;;;;7.98;84.45;101443.78;5035143;28;20535;-58
2022/03/29 02:32:37;;;;;;;38.42;22.80;;;;;;;7.95;84.51;101429.91;5035204;28;20516;-58
2022/03/29 02:35:02;;;;;;;36.45;22.77;;;;;;;7.91;84.51;101429.00;5035343;28;20069;-58
2022/03/29 02:37:28;;;;;;;37.83;22.48;;;;;;;7.80;84.91;101425.41;5035579;28;20033;-58
2022/03/29 02:39:53;;;;;;;40.13;23.25;;;;;;;7.74;85.47;101430.59;5035627;28;20040;-58
2022/03/29 02:42:18;;;;;;;38.90;23.30;;;;;;;7.76;85.92;101425.41;5035248;28;20048;-59
2022/03/29 02:44:43;;;;;;;39.08;24.10;;;;;;;7.81;85.76;101421.97;5035384;28;20044;-58
2022/03/29 02:47:09;;;;;;;42.20;24.50;;;;;;;7.76;85.83;101410.66;5035264;28;20056;-58
2022/03/29 02:49:35;;;;;;;45.50;25.10;;;;;;;7.69;86.20;101409.72;5035196;28;20048;-58
2022/03/29 02:52:00;;;;;;;45.03;24.58;;;;;;;7.59;86.88;101407.91;5035156;28;20049;-58
2022/03/29 02:54:25;;;;;;;44.17;24.75;;;;;;;7.65;86.88;101401.88;5035308;28;20037;-58
2022/03/29 02:56:51;;;;;;;42.70;24.23;;;;;;;7.76;86.47;101402.84;5035140;28;20064;-59
2022/03/29 02:59:16;;;;;;;42.30;24.77;;;;;;;7.79;86.25;101395.06;5034672;28;20038;-59
2022/03/29 03:01:41;;;;;;;43.75;24.00;;;;;;;7.75;86.67;101398.47;5035076;28;20065;-58
2022/03/29 03:04:07;;;;;;;40.22;24.25;;;;;;;7.81;86.76;101397.63;5035224;28;20033;-58
2022/03/29 03:06:33;;;;;;;42.70;24.90;;;;;;;7.83;86.72;101395.91;5035124;28;20033;-58
2022/03/29 03:08:58;;;;;;;42.90;25.15;;;;;;;7.80;86.82;101381.13;5034667;28;20029;-58
2022/03/29 03:11:24;;;;;;;44.03;25.50;;;;;;;7.84;86.78;101390.72;5035143;28;20021;-60
2022/03/29 03:13:50;;;;;;;47.50;25.98;;;;;;;7.91;86.71;101384.69;5034856;28;20416;-58
2022/03/29 03:16:15;;;;;;;45.92;25.85;;;;;;;7.88;86.33;101387.28;5035304;28;20033;-58
2022/03/29 03:18:41;;;;;;;46.72;26.60;;;;;;;7.93;86.44;101382.97;5034950;28;20099;-58
2022/03/29 03:21:06;;;;;;;45.30;27.45;;;;;;;7.93;86.47;101385.59;5034932;28;20457;-58
2022/03/29 03:23:32;;;;;;;44.85;27.33;;;;;;;7.86;86.45;101369.88;5034822;28;20372;-58
2022/03/29 03:25:57;;;;;;;47.95;27.98;;;;;;;7.90;86.72;101369.91;5034596;28;20033;-60
2022/03/29 03:28:23;;;;;;;48.83;27.17;;;;;;;7.91;86.55;101370.78;5034728;28;20095;-58
2022/03/29 03:30:48;;;;;;;48.20;28.05;;;;;;;7.81;86.79;101372.44;5034759;28;20079;-59
2022/03/29 03:33:13;;;;;;;49.97;28.55;;;;;;;7.67;87.21;101380.19;5034817;28;20414;-59
2022/03/29 03:35:39;;;;;;;48.55;29.02;;;;;;;7.60;87.95;101372.34;5034893;28;20125;-58
2022/03/29 03:38:05;;;;;;;47.17;27.75;;;;;;;7.51;88.22;101375.72;5034436;28;20107;-59
2022/03/29 03:40:30;;;;;;;51.95;28.00;;;;;;;7.57;88.71;101378.38;5034726;28;20352;-59
2022/03/29 03:42:56;;;;;;;50.22;29.63;;;;;;;7.48;88.54;101359.19;5034525;28;20105;-58
2022/03/29 03:45:22;;;;;;;47.83;29.70;;;;;;;7.57;88.48;101369.69;5034505;28;20092;-58
2022/03/29 03:47:48;;;;;;;52.13;30.77;;;;;;;7.61;88.45;101363.66;5034384;28;20037;-58
2022/03/29 03:50:13;;;;;;;55.40;31.30;;;;;;;7.54;88.46;101367.94;5034697;28;20392;-59
2022/03/29 03:52:38;;;;;;;52.72;29.75;;;;;;;7.50;88.86;101363.56;5034922;28;20048;-59
2022/03/29 03:55:04;;;;;;;56.33;30.92;;;;;;;7.55;88.62;101367.09;5034507;28;20048;-59
2022/03/29 03:57:30;;;;;;;52.90;31.15;;;;;;;7.44;88.78;101365.28;5034585;28;20033;-59
2022/03/29 03:59:56;;;;;;;52.78;31.00;;;;;;;7.42;89.37;101367.00;5034489;28;20038;-59
2022/03/29 04:02:22;;;;;;;52.42;32.03;;;;;;;7.27;89.45;101363.38;5034397;28;20337;-59
2022/03/29 04:04:47;;;;;;;58.15;32.22;;;;;;;7.21;90.10;101354.66;5034198;28;20041;-58
2022/03/29 04:07:13;;;;;;;52.60;32.20;;;;;;;7.20;90.28;101348.59;5034449;28;20045;-59
2022/03/29 04:09:39;;;;;;;54.38;32.20;;;;;;;7.15;90.38;101352.00;5034395;28;20034;-59
2022/03/29 04:12:06;;;;;;;55.88;32.08;;;;;;;7.12;90.88;101342.41;5034564;28;20026;-59
2022/03/29 04:14:31;;;;;;;59.10;32.55;;;;;;;7.06;90.90;101339.78;5034356;28;20029;-59
2022/03/29 04:16:57;;;;;;;56.75;32.50;;;;;;;7.14;91.24;101343.31;5034564;28;20405;-59
2022/03/29 04:19:22;;;;;;;56.90;32.38;;;;;;;7.18;90.73;101334.69;5034793;28;20034;-59
2022/03/29 04:21:47;;;;;;;57.67;32.25;;;;;;;7.22;91.13;101333.84;5038136;28;20053;-59
2022/03/29 04:24:13;;;;;;;60.85;33.25;;;;;;;7.18;90.92;101337.28;5038077;28;20132;-59
2022/03/29 04:26:39;;;;;;;60.47;33.60;;;;;;;7.10;91.10;101325.09;5037808;28;20503;-59
2022/03/29 04:29:04;;;;;;;54.92;33.63;;;;;;;7.12;91.01;101320.72;5037500;28;20429;-59
2022/03/29 04:31:30;;;;;;;59.35;33.50;;;;;;;7.07;90.99;101310.31;5037761;28;20041;-59
2022/03/29 04:33:55;;;;;;;58.30;34.30;;;;;;;7.07;91.20;101319.84;5037915;28;20029;-59
2022/03/29 04:36:20;;;;;;;60.17;34.78;;;;;;;7.09;91.36;101318.13;5037406;28;20436;-59
2022/03/29 04:38:46;;;;;;;57.67;34.53;;;;;;;7.01;91.10;101311.97;5037794;28;20045;-58
2022/03/29 04:41:12;;;;;;;61.17;36.40;;;;;;;6.94;91.08;101305.84;5036302;28;20076;-59
2022/03/29 04:43:37;;;;;;;61.45;37.35;;;;;;;7.02;91.45;101316.31;5037761;28;20037;-58
2022/03/29 04:46:02;;;;;;;59.53;35.13;;;;;;;6.95;91.02;101315.38;5037360;28;20059;-58
2022/03/29 04:48:29;;;;;;;64.50;36.10;;;;;;;6.81;91.74;101311.78;5037372;28;20026;-58
2022/03/29 04:50:54;;;;;;;64.72;36.58;;;;;;;6.74;92.05;101308.28;5037471;28;20033;-59
2022/03/29 04:53:19;;;;;;;65.65;38.05;;;;;;;6.69;92.99;101301.28;5037487;28;20052;-59
2022/03/29 04:55:44;;;;;;;68.35;38.22;;;;;;;6.71;93.42;101304.78;5037325;28;20040;-59
2022/03/29 04:58:10;;;;;;;67.43;38.35;;;;;;;6.79;92.98;101306.56;5037149;28;20037;-58
2022/03/29 05:00:35;;;;;;;66.03;38.67;;;;;;;6.86;92.48;101304.91;5037089;28;20057;-59
2022/03/29 05:03:01;;;;;;;65.78;38.60;;;;;;;6.89;92.51;101302.34;5037671;28;20037;-59
2022/03/29 05:05:26;;;;;;;64.60;36.33;;;;;;;6.95;92.25;101298.03;5037199;28;20406;-59
2022/03/29 05:07:52;;;;;;;63.85;39.05;;;;;;;6.96;91.90;101294.59;5037071;28;20048;-59
2022/03/29 05:10:17;;;;;;;61.15;37.65;;;;;;;6.97;91.68;101300.66;5037152;28;20187;-59
2022/03/29 05:12:51;;;;;;;66.53;39.45;;;;;;;6.78;92.46;101299.63;5037130;28;20330;-59
2022/03/29 05:15:18;;;;;;;67.47;38.47;;;;;;;6.65;93.19;101287.38;5039515;28;20035;-59
2022/03/29 05:17:44;;;;;;;66.30;39.35;;;;;;;6.76;93.58;101290.94;5033819;28;20124;-58
2022/03/29 05:20:11;;;;;;;66.50;39.33;;;;;;;6.81;92.98;101294.47;5036445;28;20116;-59
2022/03/29 05:22:46;;;;;;;66.00;39.58;;;;;;;6.82;92.95;101290.13;5036631;28;20026;-58
2022/03/29 05:25:13;;;;;;;68.22;39.28;;;;;;;6.87;92.46;101296.25;5036973;28;20032;-59
2022/03/29 05:27:39;;;;;;;70.32;39.28;;;;;;;6.83;92.64;101291.88;5036756;28;20037;-58
2022/03/29 05:30:05;;;;;;;70.70;39.38;;;;;;;6.89;92.93;101295.41;5036553;28;20336;-58
2022/03/29 05:32:31;;;;;;;70.05;39.38;;;;;;;6.89;92.98;101300.63;5036419;28;20543;-58
2022/03/29 05:34:56;;;;;;;69.38;40.70;;;;;;;6.95;92.50;101289.38;5036728;28;20117;-58
2022/03/29 05:37:22;;;;;;;71.78;41.53;;;;;;;6.80;92.64;101286.63;5036671;28;20116;-58
2022/03/29 05:39:48;;;;;;;74.07;41.35;;;;;;;6.76;92.79;101301.34;5036748;28;20029;-56
2022/03/29 05:42:13;;;;;;;73.28;43.10;;;;;;;6.63;93.54;101295.16;5036852;28;20124;-58
2022/03/29 05:44:38;;;;;;;74.47;41.55;;;;;;;6.69;93.86;101286.56;5036096;28;20029;-58
2022/03/29 05:49:49;;;;;;;81.97;43.78;;;;;;;6.63;93.89;101283.88;5035838;28;20519;-58
2022/03/29 05:52:14;;;;;;;80.43;42.72;;;;;;;6.58;94.56;101291.63;5036220;28;20109;-58
2022/03/29 05:54:41;;;;;;;81.82;44.35;;;;;;;6.60;94.97;101292.50;5036212;28;20344;-58
2022/03/29 05:57:06;;;;;;;82.05;44.20;;;;;;;6.69;95.21;101293.47;5036163;28;20037;-58
2022/03/29 05:59:32;;;;;;;84.55;45.47;;;;;;;6.74;94.50;101286.59;5036195;28;20038;-58
2022/03/29 06:02:04;;;;;;;79.22;44.53;;;;;;;6.86;94.42;101295.38;5036122;28;20041;-58
2022/03/29 06:04:29;;;;;;;82.97;43.63;;;;;;;6.87;93.81;101291.06;5035938;28;20061;-58
2022/03/29 06:06:55;;;;;;;85.65;43.85;;;;;;;6.81;94.61;101289.25;5036265;28;20036;-58
2022/03/29 06:09:20;;;;;;;86.07;45.75;;;;;;;6.81;94.68;101296.19;5035709;28;20346;-58
2022/03/29 06:11:46;;;;;;;86.88;43.03;;;;;;;6.78;94.86;101288.34;5036356;28;20495;-58
2022/03/29 06:14:11;;;;;;;85.80;44.63;;;;;;;6.74;95.44;101292.69;5034658;28;20040;-58
2022/03/29 06:16:36;;;;;;;86.13;45.65;;;;;;;6.84;95.59;101283.22;5036038;28;20071;-58
2022/03/29 06:19:01;;;;;;;86.05;43.97;;;;;;;6.82;95.63;101293.59;5036057;28;20029;-58
2022/03/29 06:21:27;;;;;;;86.68;45.75;;;;;;;6.97;95.28;101292.84;5032068;28;20068;-58
2022/03/29 06:23:52;;;;;;;87.25;44.83;;;;;;;7.06;94.43;101285.16;5033451;28;20083;-58
2022/03/29 06:26:18;;;;;;;85.70;44.40;;;;;;;7.04;94.09;101279.06;5032933;28;20045;-58
2022/03/29 06:28:43;;;;;;;88.45;45.40;;;;;;;7.08;93.87;101292.97;5034909;28;20372;-59
2022/03/29 06:31:09;;;;;;;85.88;43.08;;;;;;;7.01;94.05;101288.56;5033794;28;20373;-59
2022/03/29 06:33:35;;;;;;;87.03;44.53;;;;;;;6.95;94.89;101286.75;5035683;28;20033;-58
2022/03/29 06:36:00;;;;;;;91.93;45.88;;;;;;;6.99;95.10;101284.22;5035255;28;20041;-59
2022/03/29 06:38:25;;;;;;;86.60;45.45;;;;;;;7.11;94.66;101287.75;5035388;28;20048;-58
2022/03/29 06:40:52;;;;;;;84.40;43.08;;;;;;;7.26;94.06;101282.69;5035356;28;20033;-58
2022/03/29 06:43:18;;;;;;;90.25;44.60;;;;;;;7.32;93.74;101288.78;5034797;28;20032;-58
2022/03/29 06:45:44;;;;;;;92.95;46.60;;;;;;;7.20;93.56;101293.91;5035231;28;20033;-58
2022/03/29 06:48:09;;;;;;;89.63;45.33;;;;;;;7.08;94.81;101286.03;5035712;28;20028;-59
2022/03/29 06:50:35;;;;;;;89.28;46.05;;;;;;;7.09;94.72;101285.19;5034597;28;20029;-59
2022/03/29 06:53:01;;;;;;;97.85;47.13;;;;;;;7.08;95.13;101288.63;5035250;28;20040;-59
2022/03/29 06:55:27;;;;;;;89.63;45.08;;;;;;;7.04;95.42;101293.78;5035312;28;20041;-59
2022/03/29 06:57:52;;;;;;;91.40;45.85;;;;;;;7.01;95.70;101281.63;5035347;28;20079;-64
2022/03/29 07:00:17;;;;;;;92.60;46.42;;;;;;;7.09;95.99;101284.31;5035141;28;20127;-59
2022/03/29 07:02:46;;;;;;;97.60;47.45;;;;;;;7.20;94.66;101288.72;5035285;28;20077;-59
2022/03/29 07:05:12;;;;;;;98.53;47.75;;;;;;;7.18;95.05;101276.53;5035031;28;20360;-59
2022/03/29 07:07:37;;;;;;;94.80;45.75;;;;;;;7.22;94.36;101270.50;5035266;28;20095;-59
2022/03/29 07:12:52;;;;;;;93.72;45.55;;;;;;;7.11;95.00;101279.94;5035371;28;20363;-58
2022/03/29 07:15:18;;;;;;;98.47;47.05;;;;;;;7.10;95.02;101276.47;5035306;28;20033;-59
2022/03/29 07:17:47;;;;;;;98.28;47.05;;;;;;;7.11;95.27;101278.22;5034758;28;20040;-58
2022/03/29 07:20:14;;;;;;;102.40;47.53;;;;;;;7.10;94.88;101273.03;5031991;28;20108;-59
2022/03/29 07:22:40;;;;;;;101.63;47.15;;;;;;;7.04;95.61;101275.56;5034965;28;20036;-59
2022/03/29 07:25:06;;;;;;;103.03;47.00;;;;;;;7.07;95.90;101273.00;5034699;28;20076;-59
2022/03/29 07:27:31;;;;;;;96.18;45.67;;;;;;;7.04;95.71;101281.66;5034826;28;20033;-59
2022/03/29 07:29:59;;;;;;;98.47;46.88;;;;;;;7.05;95.66;101275.59;5034737;28;20417;-58
2022/03/29 07:32:24;;;;;;;103.45;48.22;;;;;;;6.94;96.67;101287.63;5034004;28;20125;-59
2022/03/29 07:34:51;;;;;;;106.47;48.80;;;;;;;6.94;97.11;101279.81;5034940;28;20417;-59
2022/03/29 07:37:16;;;;;;;109.35;48.90;;;;;;;6.99;96.98;101280.75;5034660;28;20041;-59
2022/03/29 07:39:41;;;;;;;99.15;46.50;;;;;;;6.98;96.98;101284.19;5034686;28;20045;-58
2022/03/29 07:42:07;;;;;;;101.32;46.95;;;;;;;6.99;97.00;101293.75;5034534;28;20033;-58
2022/03/29 07:44:32;;;;;;;102.50;48.03;;;;;;;6.91;97.80;101285.91;5034805;28;20044;-57
2022/03/29 07:46:57;;;;;;;101.95;46.80;;;;;;;6.93;97.76;101299.75;5034624;28;20340;-59
2022/03/29 07:49:23;;;;;;;103.45;46.17;;;;;;;6.84;97.73;101294.50;5034512;28;20034;-58
2022/03/29 07:51:49;;;;;;;108.35;47.85;;;;;;;6.74;98.18;101291.81;5034368;28;20447;-58
2022/03/29 07:54:14;;;;;;;110.88;49.13;;;;;;;6.79;99.40;101298.78;5034592;28;20026;-58
2022/03/29 07:56:39;;;;;;;105.85;47.90;;;;;;;6.88;98.68;101311.88;5038338;28;20036;-59
2022/03/29 07:59:04;;;;;;;103.85;45.95;;;;;;;7.04;98.65;101312.00;5037694;28;20045;-58
2022/03/29 08:01:30;;;;;;;107.65;46.95;;;;;;;7.10;98.67;101305.09;5037470;28;20041;-61
2022/03/29 08:03:55;;;;;;;102.05;45.47;;;;;;;7.19;98.41;101306.91;5038022;28;20029;-58
2022/03/29 08:06:21;;;;;;;111.63;45.75;;;;;;;7.17;97.45;101304.31;5038283;28;20125;-59
2022/03/29 08:08:46;;;;;;;109.95;47.33;;;;;;;7.16;96.65;101307.75;5037968;28;20097;-58
2022/03/29 08:11:12;;;;;;;109.07;47.45;;;;;;;7.09;97.39;101306.00;5036357;28;20519;-58
2022/03/29 08:13:37;;;;;;;110.55;47.47;;;;;;;7.12;97.51;101300.78;5036631;28;20037;-59
2022/03/29 08:16:03;;;;;;;106.55;45.88;;;;;;;7.20;97.67;101304.34;5037814;28;20033;-59
2022/03/29 08:18:30;;;;;;;104.70;46.03;;;;;;;7.26;96.64;101298.31;5035393;28;20137;-59
2022/03/29 08:20:55;;;;;;;104.20;45.85;;;;;;;7.29;97.84;101288.75;5036340;28;20049;-60
2022/03/29 08:23:21;;;;;;;101.00;45.28;;;;;;;7.35;96.80;101293.16;5036688;28;20033;-59
2022/03/29 08:25:46;;;;;;;98.72;44.13;;;;;;;7.31;96.47;101292.25;5036634;28;20060;-59
2022/03/29 08:28:14;;;;;;;106.05;46.67;;;;;;;7.27;97.20;101289.66;5037125;28;20029;-58
2022/03/29 08:30:40;;;;;;;105.82;46.80;;;;;;;7.30;97.25;101292.25;5036800;28;20037;-60
2022/03/29 08:33:06;;;;;;;109.32;46.45;;;;;;;7.34;96.99;101288.81;5036150;28;20037;-59
2022/03/29 08:35:32;;;;;;;102.07;45.50;;;;;;;7.37;96.83;101293.16;5037621;28;20364;-58
2022/03/29 08:37:58;;;;;;;101.82;45.65;;;;;;;7.36;97.40;101286.22;5036228;28;20478;-58
2022/03/29 08:40:26;;;;;;;101.68;45.83;;;;;;;7.38;97.28;101285.38;5037173;28;20109;-59
2022/03/29 08:42:54;;;;;;;102.78;45.72;;;;;;;7.46;97.29;101285.41;5037293;28;20099;-58
2022/03/29 08:45:26;;;;;;;103.88;45.85;;;;;;;7.60;96.74;101286.38;5036192;28;20095;-59
2022/03/29 08:47:56;;;;;;;100.50;45.70;;;;;;;7.74;95.53;101291.66;5047474;28;20029;-58
2022/03/29 08:50:22;;;;;;;96.88;44.72;;;;;;;7.76;95.04;101293.41;5037226;28;20029;-58
2022/03/29 08:52:49;;;;;;;105.30;46.63;;;;;;;7.78;95.41;101283.00;5037160;28;20048;-58
2022/03/29 08:55:14;;;;;;;106.35;46.53;;;;;;;7.90;94.72;101288.28;5037374;28;20425;-57
2022/03/29 08:57:39;;;;;;;112.50;46.72;;;;;;;7.97;94.19;101288.28;5037185;28;20041;-58
2022/03/29 09:00:06;;;;;;;105.68;45.03;;;;;;;7.91;94.01;101285.69;5036298;28;20108;-58
2022/03/29 09:02:34;;;;;;;108.32;48.05;;;;;;;7.77;94.46;101291.69;5036534;28;20112;-59
2022/03/29 09:05:14;;;;;;;108.72;46.47;;;;;;;7.80;94.94;101286.47;5035994;28;20079;-59
2022/03/29 09:08:01;;;;;;;108.47;46.78;;;;;;;7.81;94.46;101288.22;5035005;28;20052;-59
2022/03/29 09:10:38;;;;;;;105.93;47.65;;;;;;;7.76;95.28;101283.00;5034990;28;20048;-59
2022/03/29 09:13:24;;;;;;;113.25;48.67;;;;;;;7.93;95.04;101288.28;5017135;28;20030;-59
2022/03/29 09:15:54;;;;;;;102.47;46.97;;;;;;;8.09;94.27;101289.22;5031468;28;20030;-58
2022/03/29 09:18:21;;;;;;;113.25;47.63;;;;;;;8.16;93.85;101278.81;5036467;28;20026;-58
2022/03/29 09:21:04;;;;;;;104.82;46.67;;;;;;;8.10;93.65;101276.19;5034177;28;20431;-60
2022/03/29 09:23:30;;;;;;;104.30;46.92;;;;;;;8.05;93.58;101272.69;5022044;28;20529;-59
2022/03/29 09:25:56;;;;;;;107.90;46.92;;;;;;;8.00;93.83;101275.28;5033448;28;20037;-58
2022/03/29 09:28:22;;;;;;;112.00;46.92;;;;;;;7.98;93.81;101277.00;5035493;28;20116;-61
2022/03/29 09:30:51;;;;;;;117.13;48.28;;;;;;;7.95;94.67;101276.13;5033676;28;20041;-59
2022/03/29 09:33:19;;;;;;;113.57;48.88;;;;;;;7.96;94.45;101278.75;5034499;28;20351;-59
2022/03/29 09:36:02;;;;;;;117.90;49.10;;;;;;;7.95;94.65;101279.63;5035647;28;20490;-61
2022/03/29 09:38:34;;;;;;;118.70;49.92;;;;;;;7.95;94.26;101268.31;5035502;28;20034;-59
2022/03/29 09:41:00;;;;;;;;;;;;;;;7.97;93.89;101280.47;5034985;28;20033;-59
2022/03/29 09:43:28;;;;;;;121.05;49.30;;;;;;;8.14;94.44;101266.66;5035665;28;20356;-59
2022/03/29 09:45:58;;;;;;;126.30;50.55;;;;;;;8.27;93.20;101271.03;5035571;28;20043;-59
2022/03/29 09:48:34;;;;;;;131.32;52.15;;;;;;;8.37;92.45;101257.19;5031060;28;20069;-58
2022/03/29 09:51:14;;;;;;;148.20;53.65;;;;;;;8.53;92.09;101261.56;5031711;28;20119;-58
2022/03/29 09:53:41;;;;;;;148.55;56.13;;;;;;;8.63;91.19;101250.28;5034826;28;20053;-59
2022/03/29 09:56:08;;;;;;;137.57;55.03;;;;;;;8.62;90.71;101256.38;5035440;28;20037;-59
2022/03/29 09:58:34;;;;;;;150.55;56.30;;;;;;;8.63;90.51;101255.50;5035719;28;20082;-59
2022/03/29 10:01:00;;;;;;;139.93;54.45;;;;;;;8.58;90.67;101256.34;5036116;28;20029;-60
2022/03/29 10:03:26;;;;;;;142.07;54.28;;;;;;;8.61;90.28;101235.50;5035660;28;20045;-59
2022/03/29 10:05:53;;;;;;;131.98;53.95;;;;;;;8.68;90.41;101248.53;5035657;28;20428;-59
2022/03/29 10:11:12;;;;;;;124.37;51.50;;;;;;;8.70;90.20;101238.09;5035210;28;20056;-59
2022/03/29 10:13:38;;;;;;;123.32;51.08;;;;;;;8.63;90.32;101233.75;5035223;28;20288;-59
2022/03/29 10:16:04;;;;;;;102.07;46.22;;;;;;;8.61;89.86;101235.50;5035688;28;20105;-59
2022/03/29 10:18:30;;;;;;;107.43;48.53;;;;;;;8.55;90.78;101232.88;5034822;28;20034;-59
2022/03/29 10:20:57;;;;;;;102.40;45.72;;;;;;;8.53;90.81;101225.03;5035283;28;20049;-59
2022/03/29 10:23:24;;;;;;;98.32;44.97;;;;;;;8.57;90.82;101221.56;5034960;28;20025;-58
2022/03/29 10:25:51;;;;;;;95.25;45.03;;;;;;;8.67;90.97;101222.44;5024868;28;20049;-59
2022/03/29 10:28:16;;;;;;;98.65;46.03;;;;;;;8.86;90.08;101218.09;5031778;28;20033;-58
2022/03/29 10:30:42;;;;;;;89.13;42.55;;;;;;;8.89;89.17;101221.56;5034070;28;20372;-60
2022/03/29 10:33:19;;;;;;;85.18;42.90;;;;;;;8.92;89.22;101233.75;5034107;28;20033;-60
2022/03/29 10:36:10;;;;;;;83.43;40.67;;;;;;;8.84;89.18;101233.75;5035053;28;20021;-58
2022/03/29 10:38:47;;;;;;;83.78;41.80;;;;;;;8.52;89.87;101205.03;5034174;28;20380;-60
2022/03/29 10:41:28;;;;;;;83.75;40.72;;;;;;;8.72;90.88;101229.41;5034640;28;20344;-58
2022/03/29 10:44:01;;;;;;;77.10;40.22;;;;;;;8.99;90.10;101209.41;5034786;28;20108;-59
2022/03/29 10:46:52;;;;;;;78.00;40.35;;;;;;;9.40;88.42;101193.63;5032142;28;20107;-59
2022/03/29 10:49:32;;;;;;;78.15;40.60;;;;;;;9.30;87.53;101200.63;5014888;28;20137;-59
2022/03/29 10:52:06;;;;;;;76.65;39.92;;;;;;;9.53;87.56;101203.16;5037499;28;20029;-59
2022/03/29 10:54:36;;;;;;;75.60;39.40;;;;;;;9.51;87.09;101194.47;5054999;28;20032;-61
2022/03/29 10:57:03;;;;;;;74.75;38.50;;;;;;;9.60;86.57;101198.78;5055086;28;20083;-59
2022/03/29 10:59:30;;;;;;;72.95;39.33;;;;;;;9.70;86.35;101193.50;5054862;28;20120;-58
2022/03/29 11:02:20;;;;;;;73.78;39.50;;;;;;;9.63;86.14;101188.34;5054827;28;20082;-60
2022/03/29 11:05:02;;;;;;;70.53;39.15;;;;;;;9.55;86.52;101190.09;5055362;28;20119;-59
2022/03/29 11:07:27;;;;;;;73.30;38.90;;;;;;;9.45;87.08;101181.44;5055042;28;20029;-59
2022/03/29 11:10:19;;;;;;;68.97;36.92;;;;;;;9.71;86.66;101178.69;5054925;28;20037;-59
2022/03/29 11:12:48;;;;;;;71.55;38.47;;;;;;;9.74;85.39;101169.09;5049973;28;20045;-59
2022/03/29 11:15:27;;;;;;;68.07;37.92;;;;;;;9.82;85.77;101173.44;5054906;28;20054;-60
2022/03/29 11:17:55;;;;;;;66.72;36.88;;;;;;;10.09;84.47;101168.03;5054630;28;20036;-58
2022/03/29 11:20:34;;;;;;;68.25;36.00;;;;;;;10.31;83.56;101164.44;5054957;28;20041;-60
2022/03/29 11:23:08;;;;;;;60.47;34.42;;;;;;;10.39;82.75;101162.63;5054824;28;20035;-58
2022/03/29 11:25:43;;;;;;;62.20;35.78;;;;;;;10.83;82.10;101158.78;5054443;28;20033;-60